Time;durP1;ratioP1;P1;durP2;ratioP2;P2;SDS_P1;SDS_P2;PMS_P1;PMS_P2;Temp;Humidity;BMP_temperature;BMP_pressure;BME280_temperature;BME280_humidity;BME280_pressure;Samples;Min_cycle;Max_cycle;Signal;HPM_P1;HPM_P2
2023/02/18 00:01:17;;;;;;;71.68;40.40;;;256.90;2252.80;;;;;;5047533;28;20517;-78
2023/02/18 00:03:43;;;;;;;56.25;34.70;;;256.80;2252.80;;;;;;5047421;28;20111;-76
2023/02/18 00:06:17;;;;;;;51.63;31.00;;;256.70;2252.80;;;;;;5063367;28;20021;-77
2023/02/18 00:08:44;;;;;;;66.22;36.38;;;256.60;2252.80;;;;;;5060369;28;20044;-77
2023/02/18 00:11:10;;;;;;;63.90;36.17;;;256.50;2252.80;;;;;;5066219;28;20166;-76
2023/02/18 00:13:36;;;;;;;56.15;33.63;;;281.80;2278.40;;;;;;5043062;28;20103;-77
2023/02/18 00:16:04;;;;;;;64.20;36.38;;;256.50;2252.80;;;;;;5048537;28;20608;-79
2023/02/18 00:18:30;;;;;;;57.88;33.80;;;256.50;2252.80;;;;;;5061076;28;20112;-75
2023/02/18 00:20:56;;;;;;;49.38;27.65;;;256.50;2252.80;;;;;;5035153;28;20439;-75
2023/02/18 00:23:22;;;;;;;49.88;28.77;;;256.50;2252.80;;;;;;5035662;28;20597;-77
2023/02/18 00:25:47;;;;;;;48.97;29.40;;;256.50;2252.80;;;;;;5054074;28;20107;-76
2023/02/18 00:28:13;;;;;;;47.28;26.70;;;256.60;2252.80;;;;;;5054076;28;20110;-77
2023/02/18 00:30:40;;;;;;;;;;;256.70;2252.80;;;;;;5053593;28;20033;-74
2023/02/18 00:33:05;;;;;;;47.67;27.83;;;256.70;2252.80;;;;;;5053749;28;20375;-76
2023/02/18 00:35:31;;;;;;;53.75;31.73;;;256.70;2252.80;;;;;;5034871;28;20144;-77
2023/02/18 00:37:56;;;;;;;;;;;256.70;2252.80;;;;;;5054377;28;20067;-75
2023/02/18 00:40:22;;;;;;;42.13;23.25;;;256.70;2252.80;;;;;;5053348;28;19962;-76
2023/02/18 00:42:48;;;;;;;;;;;256.80;2252.80;;;;;;5054116;28;20467;-77
2023/02/18 00:45:14;;;;;;;31.33;18.38;;;256.90;2252.80;;;;;;5053612;28;19999;-75
2023/02/18 00:47:39;;;;;;;;;;;281.60;2278.40;;;;;;5035801;28;20040;-76
2023/02/18 00:50:06;;;;;;;29.25;17.20;;;281.70;2278.40;;;;;;5053508;28;19912;-76
2023/02/18 00:52:31;;;;;;;29.77;17.17;;;281.80;2278.40;;;;;;5050889;28;20017;-76
2023/02/18 00:54:57;;;;;;;29.42;17.75;;;281.80;2278.40;;;;;;5053464;28;20048;-75
2023/02/18 00:57:23;;;;;;;;;;;281.80;2278.40;;;;;;5036102;28;20043;-75
2023/02/18 00:59:48;;;;;;;23.88;14.02;;;282.00;2278.40;;;;;;5035492;28;19974;-78
2023/02/18 01:02:14;;;;;;;24.60;13.57;;;282.00;2278.40;;;;;;5053348;28;20052;-75
2023/02/18 01:04:40;;;;;;;26.05;14.68;;;282.10;2278.40;;;;;;5035066;28;20033;-78
2023/02/18 01:07:05;;;;;;;;;;;282.10;2278.40;;;;;;5035229;28;20033;-76
2023/02/18 01:09:31;;;;;;;15.60;9.68;;;282.20;2278.40;;;;;;5035263;28;19992;-77
2023/02/18 01:11:56;;;;;;;;;;;282.30;2278.40;;;;;;5053513;28;20048;-78
2023/02/18 01:14:22;;;;;;;14.68;7.78;;;282.30;2278.40;;;;;;5035306;28;19909;-76
2023/02/18 01:16:48;;;;;;;13.63;7.30;;;282.50;2278.40;;;;;;5053026;28;20123;-76
2023/02/18 01:19:14;;;;;;;13.65;7.57;;;282.50;2278.40;;;;;;5052856;28;20490;-75
2023/02/18 01:21:39;;;;;;;14.38;8.35;;;282.50;2278.40;;;;;;5052807;28;20046;-76
2023/02/18 01:24:05;;;;;;;11.02;6.95;;;307.20;2304.00;;;;;;5052905;28;20025;-75
2023/02/18 01:26:31;;;;;;;16.77;7.63;;;307.20;2304.00;;;;;;5034904;28;20021;-78
2023/02/18 01:28:56;;;;;;;;;;;307.30;2304.00;;;;;;5053484;28;20033;-76
2023/02/18 01:31:22;;;;;;;12.23;7.47;;;307.30;2304.00;;;;;;5034646;28;19956;-76
2023/02/18 01:33:48;;;;;;;14.32;8.07;;;307.30;2278.40;;;;;;5050153;28;20444;-75
2023/02/18 01:36:13;;;;;;;;;;;307.40;2278.40;;;;;;5053457;28;20033;-75
2023/02/18 01:38:39;;;;;;;12.18;7.68;;;307.40;2252.80;;;;;;5052820;28;19905;-75
2023/02/18 01:41:05;;;;;;;;;;;307.40;2278.40;;;;;;5034938;28;20151;-76
2023/02/18 01:43:31;;;;;;;11.97;7.67;;;307.40;2252.80;;;;;;5034788;28;20042;-77
2023/02/18 01:46:02;;;;;;;13.50;6.95;;;307.40;2227.20;;;;;;5034351;28;20037;-76
2023/02/18 01:48:40;;;;;;;11.75;7.32;;;307.40;2201.60;;;;;;5032310;28;20406;-75
2023/02/18 01:51:17;;;;;;;11.50;7.35;;;307.50;2201.60;;;;;;5050909;28;20033;-75
2023/02/18 01:54:12;;;;;;;;;;;307.50;2150.40;;;;;;5035020;28;20055;-76
2023/02/18 01:56:43;;;;;;;10.80;6.50;;;307.60;2150.40;;;;;;4972341;28;20059;-76
2023/02/18 01:59:14;;;;;;;13.05;7.07;;;307.60;2150.40;;;;;;4991712;28;20026;-75
2023/02/18 02:01:43;;;;;;;13.13;7.45;;;307.60;2150.40;;;;;;4974678;28;20112;-76
2023/02/18 02:04:09;;;;;;;12.85;7.47;;;307.60;2124.80;;;;;;4975186;28;20062;-75
2023/02/18 02:06:35;;;;;;;14.00;8.00;;;307.60;2150.40;;;;;;4991619;28;20034;-76
2023/02/18 02:09:04;;;;;;;12.93;8.27;;;307.60;2124.80;;;;;;4985560;28;20463;-77
2023/02/18 02:11:49;;;;;;;11.73;7.05;;;307.60;2124.80;;;;;;5010693;28;20037;-78
2023/02/18 02:14:32;;;;;;;10.95;7.75;;;307.60;2099.20;;;;;;5010911;28;20060;-76
2023/02/18 02:17:06;;;;;;;12.63;7.65;;;307.70;2073.60;;;;;;5000304;28;20029;-79
2023/02/18 02:19:32;;;;;;;11.57;7.43;;;307.60;2099.20;;;;;;5010687;28;20480;-76
2023/02/18 02:22:11;;;;;;;11.02;7.68;;;307.60;2073.60;;;;;;5011128;28;20040;-75
2023/02/18 02:25:00;;;;;;;12.32;7.57;;;307.60;2048.00;;;;;;5010910;28;20028;-76
2023/02/18 02:27:38;;;;;;;13.05;7.97;;;307.60;2048.00;;;;;;4952312;29;20036;-76
2023/02/18 02:30:35;;;;;;;12.13;7.40;;;307.60;2022.40;;;;;;4937981;29;20027;-77
2023/02/18 02:33:33;;;;;;;11.50;5.95;;;307.60;2022.40;;;;;;4982353;28;20037;-80
2023/02/18 02:36:20;;;;;;;10.32;7.63;;;307.70;1996.80;;;;;;4991882;28;20030;-76
2023/02/18 02:39:19;;;;;;;11.95;7.90;;;307.70;1996.80;;;;;;4991042;28;20037;-76
2023/02/18 02:42:31;;;;;;;12.10;7.70;;;307.70;1996.80;;;;;;4998761;28;20467;-76
2023/02/18 02:45:21;;;;;;;9.73;6.93;;;307.80;2022.40;;;;;;4909573;29;20036;-76
2023/02/18 02:48:00;;;;;;;12.82;8.10;;;307.80;2022.40;;;;;;4902557;29;20119;-77
2023/02/18 02:50:51;;;;;;;12.75;6.97;;;307.80;1996.80;;;;;;4898189;29;20048;-75
2023/02/18 02:53:25;;;;;;;14.00;8.38;;;307.80;1996.80;;;;;;4913957;29;20080;-76
2023/02/18 02:55:51;;;;;;;12.15;7.55;;;307.80;1996.80;;;;;;4883211;29;20422;-76
2023/02/18 02:58:18;;;;;;;13.15;7.60;;;307.80;1996.80;;;;;;4911822;29;20036;-75
2023/02/18 03:00:56;;;;;;;15.10;8.38;;;307.80;2022.40;;;;;;4901792;29;20021;-76
2023/02/18 03:03:30;;;;;;;12.77;7.65;;;307.80;2022.40;;;;;;4913329;29;20076;-75
2023/02/18 03:06:05;;;;;;;14.43;8.43;;;307.80;2022.40;;;;;;4955998;29;20035;-78
2023/02/18 03:08:46;;;;;;;13.07;8.23;;;307.80;2022.40;;;;;;4955248;29;20038;-76
2023/02/18 03:11:14;;;;;;;12.98;8.15;;;307.80;2022.40;;;;;;4955470;29;20615;-78
2023/02/18 03:14:19;;;;;;;12.50;7.45;;;307.80;2022.40;;;;;;4955695;29;20023;-76
2023/02/18 03:16:52;;;;;;;12.05;7.43;;;307.80;1996.80;;;;;;4954914;29;20379;-76
2023/02/18 03:19:24;;;;;;;11.48;7.88;;;307.80;2022.40;;;;;;4955374;29;20023;-76
2023/02/18 03:21:59;;;;;;;12.63;8.07;;;307.80;2022.40;;;;;;4996789;28;20036;-78
2023/02/18 03:24:40;;;;;;;12.27;7.67;;;307.80;2022.40;;;;;;5054271;28;20033;-76
2023/02/18 03:27:32;;;;;;;12.40;7.78;;;307.80;2022.40;;;;;;5054227;28;20516;-74
2023/02/18 03:30:09;;;;;;;11.30;7.00;;;307.70;2022.40;;;;;;5043153;28;20025;-74
2023/02/18 03:32:35;;;;;;;13.27;7.97;;;307.80;2022.40;;;;;;5055344;28;20033;-75
2023/02/18 03:35:10;;;;;;;12.95;8.15;;;307.80;2022.40;;;;;;5055416;28;20435;-76
2023/02/18 03:37:41;;;;;;;13.05;7.28;;;307.80;2022.40;;;;;;5053924;28;20025;-74
2023/02/18 03:40:09;;;;;;;13.23;7.75;;;307.80;2022.40;;;;;;5055117;28;20514;-75
2023/02/18 03:42:34;;;;;;;15.57;8.35;;;307.80;1996.80;;;;;;5053810;28;20090;-75
2023/02/18 03:45:00;;;;;;;15.75;8.50;;;307.80;1996.80;;;;;;5055293;28;20025;-75
2023/02/18 03:47:26;;;;;;;17.40;8.57;;;307.80;1996.80;;;;;;5053572;28;20025;-76
2023/02/18 03:49:52;;;;;;;14.27;8.82;;;307.80;1971.20;;;;;;5053608;28;20021;-75
2023/02/18 03:52:18;;;;;;;13.77;7.82;;;307.80;1971.20;;;;;;5055027;28;20352;-75
2023/02/18 03:54:43;;;;;;;12.80;8.15;;;307.80;1971.20;;;;;;5055060;28;20049;-77
2023/02/18 03:57:09;;;;;;;13.25;8.52;;;307.80;1971.20;;;;;;5055099;28;20024;-75
2023/02/18 03:59:35;;;;;;;12.27;8.23;;;307.80;1996.80;;;;;;5053670;28;20037;-77
2023/02/18 04:02:01;;;;;;;15.32;8.63;;;307.80;1996.80;;;;;;5054693;28;20033;-76
2023/02/18 04:04:27;;;;;;;15.93;8.43;;;307.80;1996.80;;;;;;5054816;28;20021;-75
2023/02/18 04:06:53;;;;;;;12.55;8.05;;;307.80;2022.40;;;;;;5053761;28;20029;-74
2023/02/18 04:09:18;;;;;;;15.23;8.07;;;307.80;1996.80;;;;;;5055042;28;20063;-76
2023/02/18 04:11:44;;;;;;;14.10;9.15;;;307.80;1996.80;;;;;;5054742;28;20471;-76
2023/02/18 04:14:13;;;;;;;12.50;7.55;;;307.80;1996.80;;;;;;5054705;28;20024;-75
2023/02/18 04:16:38;;;;;;;15.85;8.05;;;307.80;1996.80;;;;;;5053153;28;20368;-74
2023/02/18 04:19:04;;;;;;;14.13;7.90;;;307.80;2022.40;;;;;;5054817;28;20028;-77
2023/02/18 04:21:30;;;;;;;13.63;8.32;;;307.80;2022.40;;;;;;5054447;28;20540;-75
2023/02/18 04:23:55;;;;;;;13.73;8.25;;;307.70;2073.60;;;;;;5053424;28;20036;-76
2023/02/18 04:26:21;;;;;;;17.58;8.85;;;307.70;2099.20;;;;;;5054209;28;20029;-75
2023/02/18 04:28:47;;;;;;;;;;;307.70;2073.60;;;;;;5054751;28;20024;-75
2023/02/18 04:31:14;;;;;;;13.00;8.80;;;307.60;2073.60;;;;;;5054145;28;19919;-75
2023/02/18 04:33:40;;;;;;;12.23;8.45;;;307.60;2073.60;;;;;;5054112;28;20024;-75
2023/02/18 04:36:06;;;;;;;16.50;9.10;;;307.60;2073.60;;;;;;5054268;28;20029;-75
2023/02/18 04:38:31;;;;;;;11.90;8.13;;;307.60;2073.60;;;;;;5054106;28;20462;-75
2023/02/18 04:40:57;;;;;;;11.05;7.82;;;307.50;2073.60;;;;;;5053767;28;20064;-77
2023/02/18 04:43:23;;;;;;;14.25;8.48;;;307.50;2099.20;;;;;;5054172;28;20438;-75
2023/02/18 04:45:49;;;;;;;16.45;8.43;;;307.40;2099.20;;;;;;5052630;28;20112;-74
2023/02/18 04:48:14;;;;;;;14.10;8.40;;;307.50;2073.60;;;;;;5053854;28;20021;-76
2023/02/18 04:50:40;;;;;;;14.10;8.50;;;307.40;2099.20;;;;;;5053846;28;20036;-78
2023/02/18 04:53:06;;;;;;;13.77;8.98;;;307.30;2099.20;;;;;;5052774;28;20496;-78
2023/02/18 04:55:32;;;;;;;13.10;8.32;;;307.40;2099.20;;;;;;5053716;28;20017;-75
2023/02/18 04:57:57;;;;;;;;;;;307.40;2099.20;;;;;;5054373;28;20052;-75
2023/02/18 05:00:23;;;;;;;12.55;8.05;;;307.40;2124.80;;;;;;5053713;28;20281;-75
2023/02/18 05:02:48;;;;;;;;;;;307.30;2124.80;;;;;;5054144;28;20025;-75
2023/02/18 05:05:15;;;;;;;14.60;8.63;;;307.30;2124.80;;;;;;5053622;28;19916;-75
2023/02/18 05:07:41;;;;;;;14.50;8.23;;;307.20;2150.40;;;;;;5053681;28;20025;-74
2023/02/18 05:10:09;;;;;;;18.30;9.25;;;307.20;2150.40;;;;;;5053292;28;20021;-75
2023/02/18 05:12:35;;;;;;;12.95;8.10;;;307.20;2176.00;;;;;;5052160;28;20056;-75
2023/02/18 05:15:00;;;;;;;13.70;8.93;;;307.20;2176.00;;;;;;5051802;28;20017;-75
2023/02/18 05:17:26;;;;;;;16.38;9.35;;;282.50;2176.00;;;;;;5052987;28;20104;-75
2023/02/18 05:19:52;;;;;;;;;;;282.50;2227.20;;;;;;5052187;28;20021;-75
2023/02/18 05:22:17;;;;;;;15.52;8.68;;;282.40;2227.20;;;;;;5053571;28;19905;-75
2023/02/18 05:24:43;;;;;;;17.55;8.88;;;282.40;2227.20;;;;;;5053592;28;20495;-75
2023/02/18 05:27:09;;;;;;;17.10;9.60;;;282.30;2227.20;;;;;;5052034;28;20021;-75
2023/02/18 05:29:34;;;;;;;13.00;8.88;;;282.30;2252.80;;;;;;5053272;28;20409;-75
2023/02/18 05:32:00;;;;;;;;;;;282.30;2252.80;;;;;;5053861;28;20036;-78
2023/02/18 05:34:25;;;;;;;14.50;8.98;;;282.40;2227.20;;;;;;5051791;28;19905;-75
2023/02/18 05:36:51;;;;;;;15.90;9.13;;;282.40;2201.60;;;;;;5052098;28;20051;-77
2023/02/18 05:39:17;;;;;;;14.32;9.20;;;282.40;2201.60;;;;;;5038363;28;20378;-75
2023/02/18 05:41:42;;;;;;;;;;;282.40;2227.20;;;;;;5051989;28;20053;-75
2023/02/18 05:46:52;;;;;;;14.43;8.52;;;282.40;2201.60;;;;;;5053233;28;20020;-74
2023/02/18 05:49:18;;;;;;;13.65;8.75;;;282.40;2201.60;;;;;;5053415;28;20025;-75
2023/02/18 05:51:43;;;;;;;;;;;282.30;2201.60;;;;;;5053970;28;20078;-75
2023/02/18 05:54:09;;;;;;;15.38;9.18;;;282.40;2201.60;;;;;;5051730;28;19909;-75
2023/02/18 05:56:34;;;;;;;14.05;9.63;;;282.40;2201.60;;;;;;5052858;28;20029;-80
2023/02/18 05:59:00;;;;;;;;;;;282.40;2201.60;;;;;;5053279;28;20029;-75
2023/02/18 06:01:26;;;;;;;14.30;8.85;;;282.40;2201.60;;;;;;5051609;28;19904;-74
2023/02/18 06:03:51;;;;;;;22.90;9.68;;;282.30;2201.60;;;;;;5052847;28;20112;-76
2023/02/18 06:06:17;;;;;;;17.00;9.40;;;282.30;2227.20;;;;;;5051528;28;20021;-77
2023/02/18 06:08:43;;;;;;;;;;;282.30;2227.20;;;;;;5053174;28;20041;-76
2023/02/18 06:11:08;;;;;;;25.95;15.25;;;282.30;2227.20;;;;;;5051617;28;19921;-76
2023/02/18 06:13:34;;;;;;;24.42;15.68;;;282.30;2227.20;;;;;;5052938;28;20112;-76
2023/02/18 06:16:00;;;;;;;23.75;14.43;;;282.30;2227.20;;;;;;5051638;28;20035;-78
2023/02/18 06:18:25;;;;;;;;;;;282.40;2227.20;;;;;;5053134;28;20100;-77
2023/02/18 06:20:51;;;;;;;24.48;14.10;;;282.30;2227.20;;;;;;5039018;28;19944;-77
2023/02/18 06:23:16;;;;;;;25.88;13.70;;;282.30;2227.20;;;;;;5034811;28;20035;-77
2023/02/18 06:25:42;;;;;;;;;;;282.40;2227.20;;;;;;5054726;28;20496;-76
2023/02/18 06:28:08;;;;;;;20.15;13.82;;;282.30;2252.80;;;;;;5058959;28;19932;-75
2023/02/18 06:30:33;;;;;;;18.67;11.43;;;282.30;2252.80;;;;;;5039247;28;20094;-77
2023/02/18 06:32:59;;;;;;;16.73;10.82;;;282.40;2252.80;;;;;;5043862;28;20547;-78
2023/02/18 06:35:25;;;;;;;14.88;10.05;;;282.40;2252.80;;;;;;5027540;28;20040;-77
2023/02/18 06:37:50;;;;;;;18.48;9.95;;;282.40;2227.20;;;;;;5047596;28;20099;-76
2023/02/18 06:40:17;;;;;;;;;;;282.40;2252.80;;;;;;5047752;28;20413;-75
2023/02/18 06:42:43;;;;;;;19.80;9.35;;;282.40;2252.80;;;;;;5060978;28;19909;-75
2023/02/18 06:45:09;;;;;;;17.38;9.60;;;282.50;2278.40;;;;;;5028100;28;20036;-76
2023/02/18 06:47:34;;;;;;;16.70;10.98;;;282.50;2252.80;;;;;;5053189;28;20312;-74
2023/02/18 06:50:00;;;;;;;19.40;11.10;;;282.50;2278.40;;;;;;5050106;28;20462;-76
2023/02/18 06:52:26;;;;;;;19.38;11.98;;;282.50;2278.40;;;;;;5026151;28;20037;-75
2023/02/18 06:54:52;;;;;;;16.65;10.18;;;282.50;2278.40;;;;;;5053077;28;20021;-75
2023/02/18 06:57:17;;;;;;;;;;;307.20;2304.00;;;;;;5058197;28;20382;-77
2023/02/18 06:59:43;;;;;;;16.17;9.93;;;307.20;2304.00;;;;;;5032470;28;19911;-75
2023/02/18 07:02:12;;;;;;;;;;;282.50;2278.40;;;;;;5042427;28;20063;-76
2023/02/18 07:04:38;;;;;;;19.83;10.55;;;307.20;2304.00;;;;;;5048464;28;20313;-75
2023/02/18 07:07:03;;;;;;;18.40;10.70;;;282.50;2278.40;;;;;;5061382;28;20021;-75
2023/02/18 07:09:29;;;;;;;17.98;10.48;;;307.20;2304.00;;;;;;5048190;28;20083;-76
2023/02/18 07:11:55;;;;;;;22.00;11.70;;;282.50;2278.40;;;;;;5036377;28;20083;-76
2023/02/18 07:14:23;;;;;;;19.50;11.48;;;307.20;2278.40;;;;;;5039829;28;20493;-76
2023/02/18 07:16:48;;;;;;;22.35;13.32;;;307.30;2278.40;;;;;;5032399;28;20056;-76
2023/02/18 07:19:14;;;;;;;21.02;12.43;;;307.30;2278.40;;;;;;5032800;28;20065;-77
2023/02/18 07:21:40;;;;;;;20.83;10.05;;;307.30;2278.40;;;;;;5036517;28;20415;-76
2023/02/18 07:24:06;;;;;;;18.80;10.45;;;307.30;2278.40;;;;;;5038572;28;20070;-75
2023/02/18 07:26:32;;;;;;;16.13;10.02;;;307.40;2304.00;;;;;;5023035;28;20051;-76
2023/02/18 07:28:57;;;;;;;16.92;10.45;;;307.40;2304.00;;;;;;5040598;28;20029;-76
2023/02/18 07:31:23;;;;;;;16.48;10.00;;;307.40;2304.00;;;;;;5059080;28;20508;-76
2023/02/18 07:33:49;;;;;;;19.80;10.23;;;307.40;2304.00;;;;;;5047811;28;20388;-76
2023/02/18 07:36:14;;;;;;;;;;;307.40;2304.00;;;;;;5046739;28;20028;-76
2023/02/18 07:38:40;;;;;;;19.33;10.50;;;307.40;2304.00;;;;;;5071437;28;20002;-76
2023/02/18 07:41:05;;;;;;;;;;;307.30;2304.00;;;;;;5045901;28;20045;-76
2023/02/18 07:43:31;;;;;;;28.38;9.55;;;307.30;2304.00;;;;;;5064735;28;20289;-73
2023/02/18 07:45:57;;;;;;;19.25;11.20;;;307.30;2304.00;;;;;;5044986;28;20039;-76
2023/02/18 07:48:22;;;;;;;;;;;307.30;2304.00;;;;;;5050351;28;20021;-76
2023/02/18 07:50:48;;;;;;;16.40;10.70;;;307.40;2304.00;;;;;;5074387;28;19912;-77
2023/02/18 07:53:15;;;;;;;15.57;10.18;;;307.30;2304.00;;;;;;5049077;28;20028;-77
2023/02/18 07:55:50;;;;;;;17.67;10.60;;;307.60;2304.00;;;;;;5048888;28;20028;-77
2023/02/18 07:58:23;;;;;;;18.23;11.60;;;307.40;2304.00;;;;;;5044315;28;20064;-77
2023/02/18 08:00:49;;;;;;;17.88;10.90;;;307.30;2304.00;;;;;;5038908;28;20036;-75
2023/02/18 08:03:17;;;;;;;18.77;10.88;;;307.40;2304.00;;;;;;5043035;28;20127;-76
2023/02/18 08:05:43;;;;;;;21.40;10.98;;;307.40;2304.00;;;;;;5048467;28;20063;-76
2023/02/18 08:08:19;;;;;;;19.45;11.48;;;307.40;2304.00;;;;;;5047167;28;20034;-76
2023/02/18 08:10:45;;;;;;;13.35;8.23;;;307.50;2304.00;;;;;;5062715;28;20037;-76
2023/02/18 08:13:11;;;;;;;19.17;12.07;;;307.50;2304.00;;;;;;5066530;28;20029;-78
2023/02/18 08:15:37;;;;;;;18.33;11.75;;;307.50;2304.00;;;;;;5044547;28;20532;-77
2023/02/18 08:18:04;;;;;;;18.58;11.50;;;307.40;2304.00;;;;;;5052605;28;20071;-75
2023/02/18 08:20:30;;;;;;;17.33;10.93;;;307.50;2304.00;;;;;;5046514;28;20028;-77
2023/02/18 08:22:55;;;;;;;19.45;12.00;;;307.50;2304.00;;;;;;5047112;28;20096;-76
2023/02/18 08:25:21;;;;;;;19.95;10.88;;;307.60;2304.00;;;;;;5049436;28;20033;-77
2023/02/18 08:27:47;;;;;;;21.23;11.52;;;307.60;2304.00;;;;;;5044568;28;20470;-77
2023/02/18 08:30:13;;;;;;;18.05;10.77;;;307.60;2304.00;;;;;;5046836;28;20029;-77
2023/02/18 08:32:38;;;;;;;17.00;11.38;;;307.60;2304.00;;;;;;5047827;28;20123;-76
2023/02/18 08:35:06;;;;;;;20.95;11.80;;;307.60;2304.00;;;;;;5046295;28;20135;-75
2023/02/18 08:37:32;;;;;;;21.60;11.95;;;307.70;2304.00;;;;;;5049155;28;20032;-76
2023/02/18 08:39:57;;;;;;;24.25;12.52;;;307.70;2304.00;;;;;;5048536;28;20051;-78
2023/02/18 08:42:23;;;;;;;22.20;13.02;;;307.80;2304.00;;;;;;5048515;28;20028;-76
2023/02/18 08:44:49;;;;;;;;;;;307.70;2304.00;;;;;;5061869;28;20426;-78
2023/02/18 08:47:14;;;;;;;25.70;12.57;;;307.80;2304.00;;;;;;5046765;28;20289;-79
2023/02/18 08:49:40;;;;;;;23.50;15.32;;;307.80;2304.00;;;;;;5046280;28;20059;-77
2023/02/18 08:52:06;;;;;;;23.65;14.90;;;307.90;2304.00;;;;;;5046766;28;20033;-76
2023/02/18 08:54:31;;;;;;;;;;;307.90;2304.00;;;;;;5044450;28;20678;-80
2023/02/18 08:56:57;;;;;;;24.50;14.10;;;307.90;2304.00;;;;;;5046034;28;19909;-79
2023/02/18 08:59:23;;;;;;;;;;;308.00;2304.00;;;;;;5042973;28;20035;-78
2023/02/18 09:01:49;;;;;;;25.77;15.02;;;308.10;2304.00;;;;;;5063468;28;19940;-78
2023/02/18 09:04:15;;;;;;;27.50;16.50;;;308.10;2304.00;;;;;;5045532;28;20028;-75
2023/02/18 09:06:41;;;;;;;28.63;15.57;;;308.10;2304.00;;;;;;5065033;28;20028;-77
2023/02/18 09:09:07;;;;;;;21.98;14.27;;;308.10;2304.00;;;;;;5052936;28;20036;-77
2023/02/18 09:11:33;;;;;;;26.75;15.55;;;332.80;2329.60;;;;;;5050678;28;20075;-77
2023/02/18 09:13:59;;;;;;;24.52;14.85;;;307.90;2304.00;;;;;;5048709;28;20021;-77
2023/02/18 09:16:27;;;;;;;20.92;14.43;;;332.90;2329.60;;;;;;5040275;28;20029;-86
2023/02/18 09:18:52;;;;;;;27.90;17.15;;;332.80;2329.60;;;;;;5046751;28;20485;-80
2023/02/18 09:21:19;;;;;;;25.92;16.48;;;332.90;2329.60;;;;;;5044080;28;20044;-80
2023/02/18 09:23:45;;;;;;;27.73;16.20;;;332.90;2329.60;;;;;;5043707;28;20559;-80
2023/02/18 09:26:14;;;;;;;24.45;14.38;;;332.90;2329.60;;;;;;5047953;28;20118;-79
2023/02/18 09:28:41;;;;;;;35.00;19.10;;;332.90;2329.60;;;;;;5032382;28;20041;-79
2023/02/18 09:31:13;;;;;;;25.73;15.57;;;333.00;2329.60;;;;;;5045823;28;20081;-77
2023/02/18 09:33:41;;;;;;;27.05;16.05;;;333.10;2329.60;;;;;;5036296;28;20082;-76
2023/02/18 09:36:07;;;;;;;27.08;16.23;;;333.10;2329.60;;;;;;5020514;28;20025;-77
2023/02/18 09:38:33;;;;;;;31.55;17.20;;;333.20;2329.60;;;;;;5028086;28;20387;-77
2023/02/18 09:41:01;;;;;;;28.13;16.65;;;333.20;2329.60;;;;;;5036832;28;20053;-78
2023/02/18 09:43:44;;;;;;;26.52;17.02;;;333.30;2329.60;;;;;;5034452;28;20021;-79
2023/02/18 09:46:38;;;;;;;25.52;15.77;;;333.30;2329.60;;;;;;5044949;28;20024;-78
2023/02/18 09:49:07;;;;;;;31.45;16.23;;;333.40;2329.60;;;;;;5047304;28;20028;-80
2023/02/18 09:51:33;;;;;;;27.60;17.45;;;333.40;2329.60;;;;;;5038947;28;20444;-83
2023/02/18 09:53:58;;;;;;;27.98;16.45;;;333.40;2304.00;;;;;;5034662;28;20025;-80
2023/02/18 09:56:31;;;;;;;33.00;18.33;;;333.60;2278.40;;;;;;5027998;28;20111;-79
2023/02/18 09:59:02;;;;;;;38.90;20.88;;;358.40;2252.80;;;;;;5035150;28;20025;-79
2023/02/18 10:01:32;;;;;;;38.17;21.00;;;358.60;2201.60;;;;;;5039325;28;20052;-83
2023/02/18 10:04:02;;;;;;;29.98;19.27;;;358.70;2150.40;;;;;;5039092;28;20036;-82
2023/02/18 10:06:33;;;;;;;31.95;18.48;;;358.70;2124.80;;;;;;5039506;28;20086;-77
2023/02/18 10:09:09;;;;;;;27.83;17.60;;;358.70;2099.20;;;;;;5037528;28;20025;-75
2023/02/18 10:11:40;;;;;;;29.20;18.77;;;358.70;2124.80;;;;;;5055461;28;20564;-82
2023/02/18 10:14:12;;;;;;;32.50;18.90;;;358.60;2124.80;;;;;;5049804;28;20485;-76
2023/02/18 10:16:37;;;;;;;35.45;19.45;;;358.60;2150.40;;;;;;5060677;28;20032;-76
2023/02/18 10:19:19;;;;;;;33.38;19.58;;;358.60;2176.00;;;;;;5051671;28;20448;-76
2023/02/18 10:21:46;;;;;;;31.35;19.17;;;358.70;2150.40;;;;;;5031444;28;20029;-76
2023/02/18 10:24:20;;;;;;;31.25;18.35;;;358.60;2150.40;;;;;;5036956;28;20024;-74
2023/02/18 10:26:47;;;;;;;26.13;17.17;;;358.60;2176.00;;;;;;5050858;28;20029;-77
2023/02/18 10:29:16;;;;;;;29.58;17.58;;;358.60;2176.00;;;;;;5059213;28;20027;-76
2023/02/18 10:31:53;;;;;;;27.55;17.35;;;358.60;2176.00;;;;;;5043981;28;20037;-77
2023/02/18 10:34:29;;;;;;;32.05;17.25;;;358.50;2176.00;;;;;;5057710;28;20017;-76
2023/02/18 10:37:02;;;;;;;22.27;13.50;;;358.50;2201.60;;;;;;5041743;28;20013;-76
2023/02/18 10:39:44;;;;;;;33.28;18.17;;;358.50;2201.60;;;;;;5062358;28;20108;-77
2023/02/18 10:42:34;;;;;;;26.92;17.95;;;358.50;2176.00;;;;;;5043169;28;20430;-75
2023/02/18 10:45:03;;;;;;;30.52;18.75;;;358.50;2201.60;;;;;;5047094;28;20025;-76
2023/02/18 10:47:41;;;;;;;27.88;18.23;;;358.60;2176.00;;;;;;5045991;28;20029;-77
2023/02/18 10:50:24;;;;;;;28.65;17.35;;;358.60;2150.40;;;;;;5065187;28;20029;-75
2023/02/18 10:52:54;;;;;;;29.85;17.73;;;358.60;2176.00;;;;;;5047664;28;20038;-76
2023/02/18 10:55:37;;;;;;;31.45;17.50;;;358.60;2176.00;;;;;;5046683;28;20028;-76
2023/02/18 10:58:03;;;;;;;31.05;17.60;;;358.60;2176.00;;;;;;5049919;28;20104;-77
2023/02/18 11:00:34;;;;;;;26.63;16.58;;;358.70;2150.40;;;;;;5038464;28;20028;-76
2023/02/18 11:03:16;;;;;;;28.35;17.17;;;358.70;2150.40;;;;;;5048382;28;20028;-77
2023/02/18 11:05:43;;;;;;;29.90;16.17;;;358.80;2176.00;;;;;;5061425;28;20029;-77
2023/02/18 11:08:15;;;;;;;30.73;18.00;;;358.80;2099.20;;;;;;5045747;28;20037;-76
2023/02/18 11:10:44;;;;;;;26.58;17.27;;;358.90;2099.20;;;;;;5036236;28;20127;-77
2023/02/18 11:13:13;;;;;;;31.63;16.92;;;358.90;2048.00;;;;;;5040940;28;20033;-76
2023/02/18 11:15:57;;;;;;;33.13;18.00;;;359.00;2073.60;;;;;;5060851;28;20107;-78
2023/02/18 11:18:36;;;;;;;30.45;17.45;;;359.00;2073.60;;;;;;5051282;28;20032;-82
2023/02/18 11:21:17;;;;;;;25.10;16.27;;;359.10;2073.60;;;;;;5042634;28;20071;-83
2023/02/18 11:23:51;;;;;;;28.95;16.90;;;359.10;2073.60;;;;;;5028208;28;20026;-85
2023/02/18 11:26:25;;;;;;;28.88;17.67;;;359.10;2022.40;;;;;;5025858;28;20029;-88
2023/02/18 11:28:58;;;;;;;26.38;16.90;;;359.10;2022.40;;;;;;5037290;28;20037;-83
2023/02/18 11:31:34;;;;;;;27.10;16.40;;;359.20;2022.40;;;;;;5046207;28;20040;-83
2023/02/18 11:34:02;;;;;;;;;;;359.20;2048.00;;;;;;5044903;28;20043;-84
2023/02/18 11:36:32;;;;;;;;;;;359.30;2022.40;;;;;;5040662;28;19905;-79
2023/02/18 11:39:06;;;;;;;24.55;15.18;;;359.20;2022.40;;;;;;5054375;28;20098;-85
2023/02/18 11:41:41;;;;;;;29.33;16.90;;;359.20;2073.60;;;;;;5042766;28;20053;-80
2023/02/18 11:44:20;;;;;;;34.58;18.65;;;359.20;1996.80;;;;;;5031536;28;20024;-77
2023/02/18 11:47:03;;;;;;;29.50;17.30;;;359.00;1971.20;;;;;;5031594;28;20513;-77
2023/02/18 11:49:29;;;;;;;32.67;19.45;;;359.20;1971.20;;;;;;5036758;28;20028;-81
2023/02/18 11:52:23;;;;;;;33.55;18.15;;;359.20;1971.20;;;;;;5031582;28;20123;-77
2023/02/18 11:55:07;;;;;;;32.65;18.67;;;359.30;1971.20;;;;;;5018643;28;20025;-78
2023/02/18 11:57:37;;;;;;;35.80;19.15;;;384.00;1971.20;;;;;;5027559;28;20030;-76
2023/02/18 12:00:14;;;;;;;28.83;17.35;;;384.00;1945.60;;;;;;5029101;28;20071;-77
2023/02/18 12:02:40;;;;;;;28.20;18.13;;;384.00;1894.40;;;;;;5048380;28;20049;-77
2023/02/18 12:05:23;;;;;;;31.85;17.63;;;384.20;1920.00;;;;;;5032210;28;20032;-77
2023/02/18 12:07:54;;;;;;;27.30;18.05;;;384.30;1920.00;;;;;;5051049;28;20039;-77
2023/02/18 12:10:34;;;;;;;32.08;17.70;;;384.40;1868.80;;;;;;5024368;28;20021;-77
2023/02/18 12:13:20;;;;;;;27.95;18.02;;;384.60;1843.20;;;;;;5042080;28;20034;-76
2023/02/18 12:16:18;;;;;;;35.10;17.20;;;384.70;1843.20;;;;;;5027978;28;20033;-77
2023/02/18 12:19:08;;;;;;;29.08;17.77;;;409.60;1868.80;;;;;;5034815;28;20031;-77
2023/02/18 12:21:51;;;;;;;29.27;17.30;;;409.70;1817.60;;;;;;5022395;28;20036;-78
2023/02/18 12:24:29;;;;;;;26.40;17.42;;;409.90;1817.60;;;;;;5032893;28;20433;-77
2023/02/18 12:27:17;;;;;;;35.30;19.80;;;410.00;1817.60;;;;;;5029369;28;20434;-78
2023/02/18 12:29:53;;;;;;;27.80;16.50;;;409.90;1817.60;;;;;;5036729;28;20026;-78